createdAt,value
2022-11-16T00:01:34.651Z,99564.22
2022-11-16T00:06:36.791Z,99560.81
2022-11-16T00:11:38.401Z,99557.34
2022-11-16T00:16:40.624Z,99548.72
2022-11-16T00:21:42.135Z,99547.81
2022-11-16T00:26:44.082Z,99543.50
2022-11-16T00:31:46.572Z,99540.09
2022-11-16T00:36:48.153Z,99534.06
2022-11-16T00:41:49.932Z,99528.00
2022-11-16T00:46:51.319Z,99540.09
2022-11-16T00:51:52.715Z,99525.41
2022-11-16T00:56:54.110Z,99534.91
2022-11-16T01:01:55.804Z,99519.41
2022-11-16T01:06:57.497Z,99519.41
2022-11-16T01:12:11.048Z,99518.53
2022-11-16T01:17:13.958Z,99506.47
2022-11-16T01:22:15.399Z,99514.22
2022-11-16T01:27:16.787Z,99514.16
2022-11-16T01:32:18.156Z,99490.03
2022-11-16T01:37:19.992Z,99496.03
2022-11-16T01:42:24.720Z,99478.81
2022-11-16T01:47:26.194Z,99470.22
2022-11-16T01:52:31.496Z,99478.84
2022-11-16T01:57:38.036Z,99477.97
2022-11-16T02:02:39.535Z,99474.53
2022-11-16T02:08:05.719Z,99469.38
2022-11-16T02:13:18.109Z,99452.19
2022-11-16T02:18:55.857Z,99459.91
2022-11-16T02:24:15.534Z,99458.22
2022-11-16T02:29:16.844Z,99442.69
2022-11-16T02:34:21.179Z,99444.44
2022-11-16T02:39:27.144Z,99444.47
2022-11-16T02:44:36.121Z,99443.59
2022-11-16T02:49:44.124Z,99434.97
2022-11-16T02:54:45.479Z,99429.81
2022-11-16T02:59:50.758Z,99430.69
2022-11-16T03:05:01.559Z,99430.69
2022-11-16T03:10:03.665Z,99439.28
2022-11-16T03:15:09.742Z,99422.03
2022-11-16T03:20:18.205Z,99429.81
2022-11-16T03:25:22.531Z,99435.00
2022-11-16T03:30:27.598Z,99421.16
2022-11-16T03:35:36.650Z,99416.00
2022-11-16T03:40:40.157Z,99409.06
2022-11-16T03:45:42.360Z,99408.22
2022-11-16T03:50:44.071Z,99410.78
2022-11-16T03:55:49.604Z,99413.34
2022-11-16T04:00:51.560Z,99421.94
2022-11-16T04:06:11.650Z,99447.91
2022-11-16T04:11:37.411Z,99455.97
2022-11-16T04:16:57.088Z,99454.34
2022-11-16T04:22:23.996Z,99456.94
2022-11-16T04:27:48.129Z,99468.13
2022-11-16T04:33:08.583Z,99466.38
2022-11-16T04:38:10.164Z,99462.13
2022-11-16T04:43:11.562Z,99469.00
2022-11-16T04:48:14.607Z,99467.28
2022-11-16T04:53:16.003Z,99481.06
2022-11-16T04:58:17.404Z,99486.22
2022-11-16T05:03:18.989Z,99493.09
2022-11-16T05:08:20.347Z,99507.72
2022-11-16T05:13:21.757Z,99506.88
2022-11-16T05:18:23.090Z,99510.31
2022-11-16T05:23:43.129Z,99504.31
2022-11-16T05:28:44.508Z,99508.59
2022-11-16T05:33:46.232Z,99515.50
2022-11-16T05:38:47.699Z,99519.81
2022-11-16T05:43:49.236Z,99524.06
2022-11-16T05:48:52.166Z,99527.50
2022-11-16T05:53:53.666Z,99536.97
2022-11-16T05:58:55.448Z,99537.81
2022-11-16T06:04:01.214Z,99542.94
2022-11-16T06:09:05.718Z,99536.03
2022-11-16T06:14:07.719Z,99537.78
2022-11-16T06:19:09.337Z,99533.50
2022-11-16T06:24:10.780Z,99526.66
2022-11-16T06:29:12.192Z,99546.44
2022-11-16T06:34:13.839Z,99548.19
2022-11-16T06:39:15.770Z,99549.91
2022-11-16T06:44:17.209Z,99572.31
2022-11-16T06:49:18.637Z,99577.44
2022-11-16T06:54:22.427Z,99578.31
2022-11-16T06:59:23.861Z,99584.31
2022-11-16T07:04:25.283Z,99591.16
2022-11-16T07:09:30.982Z,99595.44
2022-11-16T07:14:32.349Z,99604.91
2022-11-16T07:19:33.781Z,99610.88
2022-11-16T07:24:36.650Z,99621.16
2022-11-16T07:29:38.281Z,99621.16
2022-11-16T07:34:39.681Z,99626.31
2022-11-16T07:39:41.361Z,99634.00
2022-11-16T07:44:42.883Z,99647.69
2022-11-16T07:49:45.462Z,99649.38
2022-11-16T07:54:46.965Z,99660.56
2022-11-16T07:59:49.713Z,99676.91
2022-11-16T08:04:52.424Z,99680.34
2022-11-16T08:09:54.260Z,99677.78
2022-11-16T08:14:55.755Z,99684.72
2022-11-16T08:19:57.434Z,99682.16
2022-11-16T08:25:00.525Z,99691.63
2022-11-16T08:30:04.835Z,99683.94
2022-11-16T08:35:06.667Z,99677.09
2022-11-16T08:40:08.537Z,99684.00
2022-11-16T08:45:10.153Z,99697.75
2022-11-16T08:50:11.530Z,99698.66
2022-11-16T08:55:13.923Z,99704.63
2022-11-16T09:00:15.904Z,99698.66
2022-11-16T09:05:17.258Z,99713.28
2022-11-16T09:10:22.894Z,99721.03
2022-11-16T09:15:24.281Z,99727.03
2022-11-16T09:20:26.369Z,99721.91
2022-11-16T09:25:27.806Z,99721.94
2022-11-16T09:30:29.169Z,99725.41
2022-11-16T09:35:31.051Z,99728.00
2022-11-16T09:40:41.994Z,99746.06
2022-11-16T09:45:50.787Z,99744.34
2022-11-16T09:51:08.093Z,99763.25
2022-11-16T09:56:16.478Z,99758.97
2022-11-16T10:01:34.997Z,99769.31
2022-11-16T10:07:16.189Z,99770.16
2022-11-16T10:12:43.653Z,99782.25
2022-11-16T10:18:07.055Z,99784.84
2022-11-16T10:23:41.851Z,99794.31
2022-11-16T10:29:00.937Z,99810.69
2022-11-16T10:39:25.608Z,99828.78
2022-11-16T10:44:38.725Z,99841.69
2022-11-16T10:49:49.195Z,99849.47
2022-11-16T10:54:51.411Z,99864.06
2022-11-16T10:59:59.503Z,99867.53
2022-11-16T11:05:13.264Z,99868.31
2022-11-16T11:10:30.720Z,99864.78
2022-11-16T11:15:34.300Z,99867.31
2022-11-16T11:20:39.088Z,99866.47
2022-11-16T11:25:55.602Z,99860.38
2022-11-16T11:31:09.201Z,99868.03
2022-11-16T11:36:22.817Z,99852.88
2022-11-16T11:41:24.425Z,99842.19
2022-11-16T11:46:56.030Z,99834.31
2022-11-16T11:51:56.275Z,99837.34
2022-11-16T11:57:01.447Z,99829.03
2022-11-16T12:02:38.013Z,99838.44
2022-11-16T12:08:05.182Z,99855.28
2022-11-16T12:13:12.797Z,99845.88
2022-11-16T12:18:23.848Z,99844.94
2022-11-16T12:23:51.603Z,99841.63
2022-11-16T12:29:25.865Z,99849.44
2022-11-16T12:35:05.056Z,99837.38
2022-11-16T12:40:38.068Z,99837.38
2022-11-16T12:45:58.019Z,99831.25
2022-11-16T12:51:15.294Z,99819.97
2022-11-16T12:56:29.326Z,99812.22
2022-11-16T13:01:40.910Z,99807.09
2022-11-16T13:06:51.899Z,99808.81
2022-11-16T13:12:00.537Z,99808.75
2022-11-16T13:17:03.975Z,99799.19
2022-11-16T13:22:14.038Z,99791.47
2022-11-16T13:27:34.438Z,99793.22
2022-11-16T13:32:47.343Z,99786.41
2022-11-16T13:37:50.374Z,99782.97
2022-11-16T13:43:16.985Z,99787.34
2022-11-16T13:48:21.567Z,99786.44
2022-11-16T13:58:55.213Z,99781.31
2022-11-16T14:04:35.372Z,99771.78
2022-11-16T14:09:44.954Z,99767.53
2022-11-16T14:15:17.109Z,99782.25
2022-11-16T14:20:31.399Z,99770.13
2022-11-16T14:25:40.466Z,99750.31
2022-11-16T14:31:12.693Z,99755.50
2022-11-16T14:36:15.072Z,99745.13
2022-11-16T14:41:22.975Z,99740.81
2022-11-16T14:46:32.895Z,99740.78
2022-11-16T14:51:37.732Z,99733.06
2022-11-16T14:56:55.831Z,99727.09
2022-11-16T15:02:00.031Z,99726.19
2022-11-16T15:07:03.639Z,99722.81
2022-11-16T15:12:30.239Z,99716.78
2022-11-16T15:17:33.586Z,99711.59
2022-11-16T15:22:42.010Z,99716.81
2022-11-16T15:27:43.662Z,99706.50
2022-11-16T15:32:47.908Z,99693.59
2022-11-16T15:38:03.314Z,99696.19
2022-11-16T15:43:06.630Z,99692.72
2022-11-16T15:48:17.037Z,99676.38
2022-11-16T15:53:40.840Z,99675.50
2022-11-16T15:58:42.767Z,99646.25
2022-11-16T16:03:54.400Z,99647.09
2022-11-16T16:09:06.230Z,99653.94
2022-11-16T16:14:10.801Z,99636.75
2022-11-16T16:19:34.401Z,99635.91
2022-11-16T16:24:44.669Z,99639.34
2022-11-16T16:29:48.378Z,99638.47
2022-11-16T16:34:50.648Z,99630.72
2022-11-16T16:39:52.101Z,99626.44
2022-11-16T16:44:55.179Z,99618.69
2022-11-16T16:49:59.317Z,99615.25
2022-11-16T16:55:00.868Z,99604.06
2022-11-16T17:00:02.615Z,99603.22
2022-11-16T17:05:04.780Z,99598.06
2022-11-16T17:10:07.038Z,99583.44
2022-11-16T17:15:13.843Z,99582.59
2022-11-16T17:20:18.990Z,99574.88
2022-11-16T17:25:21.131Z,99574.00
2022-11-16T17:30:24.204Z,99572.25
2022-11-16T17:35:25.734Z,99579.16
2022-11-16T17:40:28.978Z,99577.44
2022-11-16T17:45:30.568Z,99580.88
2022-11-16T17:50:31.933Z,99564.53
2022-11-16T17:55:33.448Z,99549.06
2022-11-16T18:00:34.988Z,99544.78
2022-11-16T18:05:37.643Z,99543.03
2022-11-16T18:10:40.502Z,99536.19
2022-11-16T18:15:42.681Z,99539.59
2022-11-16T18:20:44.872Z,99551.63
2022-11-16T18:25:46.293Z,99546.47
2022-11-16T18:30:47.892Z,99543.91
2022-11-16T18:35:50.767Z,99543.06
2022-11-16T18:41:11.234Z,99537.91
2022-11-16T18:46:12.797Z,99538.75
2022-11-16T18:51:16.329Z,99534.44
2022-11-16T18:56:18.427Z,99528.44
2022-11-16T19:01:22.986Z,99526.72
2022-11-16T19:06:24.705Z,99517.25
2022-11-16T19:11:27.890Z,99513.81
2022-11-16T19:16:30.455Z,99500.03
2022-11-16T19:21:32.050Z,99485.44
2022-11-16T19:26:33.525Z,99472.56
2022-11-16T19:31:34.956Z,99455.38
2022-11-16T19:36:37.263Z,99455.38
2022-11-16T19:41:38.762Z,99443.34
2022-11-16T19:46:45.138Z,99434.75
2022-11-16T19:51:46.549Z,99421.84
2022-11-16T19:56:54.747Z,99410.66
2022-11-16T20:01:56.594Z,99399.47
2022-11-16T20:06:59.926Z,99390.03
2022-11-16T20:12:01.364Z,99383.09
2022-11-16T20:17:03.025Z,99369.41
2022-11-16T20:22:05.527Z,99365.09
2022-11-16T20:27:07.823Z,99360.78
2022-11-16T20:32:09.320Z,99357.34
2022-11-16T20:37:11.844Z,99348.78
2022-11-16T20:42:13.894Z,99340.22
2022-11-16T20:47:17.632Z,99332.44
2022-11-16T20:52:21.501Z,99323.84
2022-11-16T20:57:30.068Z,99324.75
2022-11-16T21:02:31.558Z,99311.84
2022-11-16T21:07:33.133Z,99305.84
2022-11-16T21:12:55.056Z,99292.94
2022-11-16T21:18:01.422Z,99281.75
2022-11-16T21:23:04.230Z,99267.19
2022-11-16T21:28:07.264Z,99259.44
2022-11-16T21:33:11.641Z,99259.44
2022-11-16T21:38:14.049Z,99239.69
2022-11-16T21:43:16.582Z,99222.53
2022-11-16T21:48:18.365Z,99223.34
2022-11-16T21:53:19.953Z,99197.59
2022-11-16T21:58:22.576Z,99187.28
2022-11-16T22:03:30.008Z,99174.38
2022-11-16T22:08:31.806Z,99162.31
2022-11-16T22:13:34.221Z,99157.16
2022-11-16T22:18:36.174Z,99142.53
2022-11-16T22:23:38.119Z,99141.59
2022-11-16T22:28:40.056Z,99127.00
2022-11-16T22:33:42.136Z,99115.81
2022-11-16T22:38:43.595Z,99095.22
2022-11-16T22:43:45.114Z,99082.28
2022-11-16T22:48:47.917Z,99059.91
2022-11-16T22:53:57.583Z,99050.44
2022-11-16T22:59:00.730Z,99034.16
2022-11-16T23:04:02.916Z,99017.84
2022-11-16T23:09:05.828Z,98996.38
2022-11-16T23:14:29.291Z,98978.41
2022-11-16T23:19:49.169Z,98963.78
2022-11-16T23:25:08.942Z,98950.91
2022-11-16T23:30:13.347Z,98938.91
2022-11-16T23:35:15.037Z,98919.13
2022-11-16T23:40:17.870Z,98897.63
2022-11-16T23:45:20.519Z,98884.72
2022-11-16T23:50:22.045Z,98853.84
2022-11-16T23:55:26.837Z,98828.88
